sensor_id;sensor_type;location;lat;lon;timestamp;P1;durP1;ratioP1;P2;durP2;ratioP2
61915;SDS011;47868;51.326;6.550;2024-03-22T00:00:34;27.80;;;20.23;;
61915;SDS011;47868;51.326;6.550;2024-03-22T00:03:00;33.30;;;19.92;;
61915;SDS011;47868;51.326;6.550;2024-03-22T00:05:26;30.50;;;20.35;;
61915;SDS011;47868;51.326;6.550;2024-03-22T00:07:52;27.50;;;20.23;;
61915;SDS011;47868;51.326;6.550;2024-03-22T00:10:18;32.42;;;20.60;;
61915;SDS011;47868;51.326;6.550;2024-03-22T00:12:44;28.38;;;19.33;;
61915;SDS011;47868;51.326;6.550;2024-03-22T00:15:09;29.05;;;20.30;;
61915;SDS011;47868;51.326;6.550;2024-03-22T00:17:35;29.48;;;20.05;;
61915;SDS011;47868;51.326;6.550;2024-03-22T00:20:02;26.92;;;19.42;;
61915;SDS011;47868;51.326;6.550;2024-03-22T00:22:28;27.58;;;19.88;;
61915;SDS011;47868;51.326;6.550;2024-03-22T00:24:53;30.00;;;20.75;;
61915;SDS011;47868;51.326;6.550;2024-03-22T00:27:19;32.13;;;19.67;;
61915;SDS011;47868;51.326;6.550;2024-03-22T00:29:45;28.35;;;21.33;;
61915;SDS011;47868;51.326;6.550;2024-03-22T00:32:11;26.90;;;19.92;;
61915;SDS011;47868;51.326;6.550;2024-03-22T00:34:37;27.42;;;20.35;;
61915;SDS011;47868;51.326;6.550;2024-03-22T00:37:03;31.75;;;20.17;;
61915;SDS011;47868;51.326;6.550;2024-03-22T00:39:29;31.73;;;20.60;;
61915;SDS011;47868;51.326;6.550;2024-03-22T00:41:55;26.00;;;19.85;;
61915;SDS011;47868;51.326;6.550;2024-03-22T00:44:21;29.83;;;20.58;;
61915;SDS011;47868;51.326;6.550;2024-03-22T00:46:47;31.02;;;20.10;;
61915;SDS011;47868;51.326;6.550;2024-03-22T00:49:13;28.27;;;19.85;;
61915;SDS011;47868;51.326;6.550;2024-03-22T00:51:39;31.75;;;21.65;;
61915;SDS011;47868;51.326;6.550;2024-03-22T00:54:08;28.67;;;21.40;;
61915;SDS011;47868;51.326;6.550;2024-03-22T00:56:34;31.98;;;20.77;;
61915;SDS011;47868;51.326;6.550;2024-03-22T00:59:00;31.73;;;20.48;;
61915;SDS011;47868;51.326;6.550;2024-03-22T01:01:26;27.88;;;19.92;;
61915;SDS011;47868;51.326;6.550;2024-03-22T01:03:52;31.88;;;21.45;;
61915;SDS011;47868;51.326;6.550;2024-03-22T01:06:18;30.40;;;21.65;;
61915;SDS011;47868;51.326;6.550;2024-03-22T01:08:49;28.38;;;20.90;;
61915;SDS011;47868;51.326;6.550;2024-03-22T01:11:16;27.02;;;19.27;;
61915;SDS011;47868;51.326;6.550;2024-03-22T01:13:42;30.00;;;21.02;;
61915;SDS011;47868;51.326;6.550;2024-03-22T01:16:08;32.20;;;21.95;;
61915;SDS011;47868;51.326;6.550;2024-03-22T01:18:35;31.48;;;20.88;;
61915;SDS011;47868;51.326;6.550;2024-03-22T01:21:01;29.58;;;21.83;;
61915;SDS011;47868;51.326;6.550;2024-03-22T01:23:27;33.90;;;21.60;;
61915;SDS011;47868;51.326;6.550;2024-03-22T01:25:53;32.05;;;21.10;;
61915;SDS011;47868;51.326;6.550;2024-03-22T01:28:19;29.88;;;21.90;;
61915;SDS011;47868;51.326;6.550;2024-03-22T01:30:45;30.70;;;21.73;;
61915;SDS011;47868;51.326;6.550;2024-03-22T01:33:11;31.80;;;21.50;;
61915;SDS011;47868;51.326;6.550;2024-03-22T01:35:37;34.25;;;22.58;;
61915;SDS011;47868;51.326;6.550;2024-03-22T01:38:03;33.53;;;22.58;;
61915;SDS011;47868;51.326;6.550;2024-03-22T01:40:29;33.08;;;21.77;;
61915;SDS011;47868;51.326;6.550;2024-03-22T01:42:56;31.60;;;23.55;;
61915;SDS011;47868;51.326;6.550;2024-03-22T01:45:22;33.15;;;22.63;;
61915;SDS011;47868;51.326;6.550;2024-03-22T01:47:52;34.35;;;22.70;;
61915;SDS011;47868;51.326;6.550;2024-03-22T01:50:22;33.00;;;22.20;;
61915;SDS011;47868;51.326;6.550;2024-03-22T01:52:48;35.95;;;22.95;;
61915;SDS011;47868;51.326;6.550;2024-03-22T01:55:14;37.00;;;22.88;;
61915;SDS011;47868;51.326;6.550;2024-03-22T01:57:40;29.38;;;21.67;;
61915;SDS011;47868;51.326;6.550;2024-03-22T02:00:07;32.38;;;22.92;;
61915;SDS011;47868;51.326;6.550;2024-03-22T02:02:34;34.30;;;22.98;;
61915;SDS011;47868;51.326;6.550;2024-03-22T02:05:10;29.75;;;21.27;;
61915;SDS011;47868;51.326;6.550;2024-03-22T02:07:37;35.33;;;23.38;;
61915;SDS011;47868;51.326;6.550;2024-03-22T02:10:03;36.28;;;23.80;;
61915;SDS011;47868;51.326;6.550;2024-03-22T02:12:29;31.90;;;22.50;;
61915;SDS011;47868;51.326;6.550;2024-03-22T02:14:57;40.90;;;24.23;;
61915;SDS011;47868;51.326;6.550;2024-03-22T02:17:23;33.15;;;23.17;;
61915;SDS011;47868;51.326;6.550;2024-03-22T02:19:49;33.17;;;23.73;;
61915;SDS011;47868;51.326;6.550;2024-03-22T02:22:15;32.88;;;23.85;;
61915;SDS011;47868;51.326;6.550;2024-03-22T02:24:41;31.80;;;21.80;;
61915;SDS011;47868;51.326;6.550;2024-03-22T02:27:07;31.10;;;23.02;;
61915;SDS011;47868;51.326;6.550;2024-03-22T02:29:33;31.38;;;22.45;;
61915;SDS011;47868;51.326;6.550;2024-03-22T02:31:59;34.65;;;23.02;;
61915;SDS011;47868;51.326;6.550;2024-03-22T02:34:25;39.30;;;24.25;;
61915;SDS011;47868;51.326;6.550;2024-03-22T02:36:51;36.63;;;23.38;;
61915;SDS011;47868;51.326;6.550;2024-03-22T02:39:17;37.20;;;24.98;;
61915;SDS011;47868;51.326;6.550;2024-03-22T02:41:43;33.63;;;23.67;;
61915;SDS011;47868;51.326;6.550;2024-03-22T02:44:09;37.65;;;24.48;;
61915;SDS011;47868;51.326;6.550;2024-03-22T02:46:35;35.67;;;24.27;;
61915;SDS011;47868;51.326;6.550;2024-03-22T02:49:01;34.70;;;23.20;;
61915;SDS011;47868;51.326;6.550;2024-03-22T02:51:27;36.33;;;24.23;;
61915;SDS011;47868;51.326;6.550;2024-03-22T02:53:53;35.45;;;23.65;;
61915;SDS011;47868;51.326;6.550;2024-03-22T02:56:19;34.53;;;23.45;;
61915;SDS011;47868;51.326;6.550;2024-03-22T02:58:44;37.33;;;23.92;;
61915;SDS011;47868;51.326;6.550;2024-03-22T03:01:10;33.08;;;24.02;;
61915;SDS011;47868;51.326;6.550;2024-03-22T03:03:36;33.47;;;23.05;;
61915;SDS011;47868;51.326;6.550;2024-03-22T03:06:02;33.13;;;23.30;;
61915;SDS011;47868;51.326;6.550;2024-03-22T03:08:29;33.13;;;23.77;;
61915;SDS011;47868;51.326;6.550;2024-03-22T03:10:55;37.65;;;23.40;;
61915;SDS011;47868;51.326;6.550;2024-03-22T03:13:20;40.85;;;23.85;;
61915;SDS011;47868;51.326;6.550;2024-03-22T03:15:46;33.78;;;22.15;;
61915;SDS011;47868;51.326;6.550;2024-03-22T03:18:12;34.70;;;24.98;;
61915;SDS011;47868;51.326;6.550;2024-03-22T03:20:38;34.33;;;22.98;;
61915;SDS011;47868;51.326;6.550;2024-03-22T03:23:04;31.30;;;23.00;;
61915;SDS011;47868;51.326;6.550;2024-03-22T03:25:30;33.30;;;23.35;;
61915;SDS011;47868;51.326;6.550;2024-03-22T03:27:56;36.10;;;24.73;;
61915;SDS011;47868;51.326;6.550;2024-03-22T03:30:22;33.15;;;24.08;;
61915;SDS011;47868;51.326;6.550;2024-03-22T03:32:49;37.13;;;25.10;;
61915;SDS011;47868;51.326;6.550;2024-03-22T03:35:15;38.05;;;25.67;;
61915;SDS011;47868;51.326;6.550;2024-03-22T03:37:41;36.28;;;25.88;;
61915;SDS011;47868;51.326;6.550;2024-03-22T03:40:07;38.15;;;25.25;;
61915;SDS011;47868;51.326;6.550;2024-03-22T03:42:33;37.28;;;24.55;;
61915;SDS011;47868;51.326;6.550;2024-03-22T03:44:59;32.70;;;24.63;;
61915;SDS011;47868;51.326;6.550;2024-03-22T03:47:25;33.42;;;24.45;;
61915;SDS011;47868;51.326;6.550;2024-03-22T03:49:51;31.75;;;22.83;;
61915;SDS011;47868;51.326;6.550;2024-03-22T03:52:17;34.20;;;24.17;;
61915;SDS011;47868;51.326;6.550;2024-03-22T03:54:43;36.97;;;24.73;;
61915;SDS011;47868;51.326;6.550;2024-03-22T03:57:09;32.25;;;25.17;;
61915;SDS011;47868;51.326;6.550;2024-03-22T03:59:35;31.67;;;23.70;;
61915;SDS011;47868;51.326;6.550;2024-03-22T04:02:01;33.65;;;23.83;;
61915;SDS011;47868;51.326;6.550;2024-03-22T04:04:27;31.85;;;22.90;;
61915;SDS011;47868;51.326;6.550;2024-03-22T04:06:53;33.97;;;23.73;;
61915;SDS011;47868;51.326;6.550;2024-03-22T04:09:19;32.03;;;22.23;;
61915;SDS011;47868;51.326;6.550;2024-03-22T04:11:45;32.72;;;22.48;;
61915;SDS011;47868;51.326;6.550;2024-03-22T04:14:12;30.40;;;22.67;;
61915;SDS011;47868;51.326;6.550;2024-03-22T04:16:38;33.20;;;22.40;;
61915;SDS011;47868;51.326;6.550;2024-03-22T04:19:04;33.28;;;23.67;;
61915;SDS011;47868;51.326;6.550;2024-03-22T04:21:30;34.88;;;23.40;;
61915;SDS011;47868;51.326;6.550;2024-03-22T04:23:56;31.75;;;22.70;;
61915;SDS011;47868;51.326;6.550;2024-03-22T04:26:22;33.05;;;21.92;;
61915;SDS011;47868;51.326;6.550;2024-03-22T04:28:48;37.00;;;23.88;;
61915;SDS011;47868;51.326;6.550;2024-03-22T04:31:14;28.58;;;21.30;;
61915;SDS011;47868;51.326;6.550;2024-03-22T04:33:40;30.95;;;21.98;;
61915;SDS011;47868;51.326;6.550;2024-03-22T04:36:06;31.77;;;21.50;;
61915;SDS011;47868;51.326;6.550;2024-03-22T04:38:34;31.15;;;21.40;;
61915;SDS011;47868;51.326;6.550;2024-03-22T04:41:00;31.75;;;21.15;;
61915;SDS011;47868;51.326;6.550;2024-03-22T04:43:27;29.65;;;21.33;;
61915;SDS011;47868;51.326;6.550;2024-03-22T04:45:53;29.33;;;21.30;;
61915;SDS011;47868;51.326;6.550;2024-03-22T04:48:20;28.70;;;21.40;;
61915;SDS011;47868;51.326;6.550;2024-03-22T04:50:46;26.10;;;21.20;;
61915;SDS011;47868;51.326;6.550;2024-03-22T04:53:14;29.67;;;21.55;;
61915;SDS011;47868;51.326;6.550;2024-03-22T04:55:42;28.92;;;21.02;;
61915;SDS011;47868;51.326;6.550;2024-03-22T04:58:11;27.40;;;21.40;;
61915;SDS011;47868;51.326;6.550;2024-03-22T05:00:37;27.50;;;21.45;;
61915;SDS011;47868;51.326;6.550;2024-03-22T05:03:03;31.25;;;21.17;;
61915;SDS011;47868;51.326;6.550;2024-03-22T05:05:29;27.05;;;20.23;;
61915;SDS011;47868;51.326;6.550;2024-03-22T05:07:55;31.33;;;20.73;;
61915;SDS011;47868;51.326;6.550;2024-03-22T05:10:21;26.77;;;20.30;;
61915;SDS011;47868;51.326;6.550;2024-03-22T05:12:47;26.73;;;19.67;;
61915;SDS011;47868;51.326;6.550;2024-03-22T05:15:13;33.85;;;19.17;;
61915;SDS011;47868;51.326;6.550;2024-03-22T05:17:38;27.52;;;19.73;;
61915;SDS011;47868;51.326;6.550;2024-03-22T05:20:06;29.63;;;19.48;;
61915;SDS011;47868;51.326;6.550;2024-03-22T05:22:36;28.52;;;19.98;;
61915;SDS011;47868;51.326;6.550;2024-03-22T05:25:02;26.42;;;18.73;;
61915;SDS011;47868;51.326;6.550;2024-03-22T05:27:28;23.83;;;19.65;;
61915;SDS011;47868;51.326;6.550;2024-03-22T05:29:54;24.38;;;19.25;;
61915;SDS011;47868;51.326;6.550;2024-03-22T05:32:20;25.95;;;19.83;;
61915;SDS011;47868;51.326;6.550;2024-03-22T05:34:46;25.60;;;19.73;;
61915;SDS011;47868;51.326;6.550;2024-03-22T05:37:12;27.85;;;19.73;;
61915;SDS011;47868;51.326;6.550;2024-03-22T05:39:38;26.88;;;18.65;;
61915;SDS011;47868;51.326;6.550;2024-03-22T05:42:07;26.63;;;19.63;;
61915;SDS011;47868;51.326;6.550;2024-03-22T05:44:33;26.70;;;19.50;;
61915;SDS011;47868;51.326;6.550;2024-03-22T05:46:59;26.48;;;20.10;;
61915;SDS011;47868;51.326;6.550;2024-03-22T05:49:28;24.50;;;19.30;;
61915;SDS011;47868;51.326;6.550;2024-03-22T05:51:54;27.48;;;19.73;;
61915;SDS011;47868;51.326;6.550;2024-03-22T05:54:20;23.83;;;18.58;;
61915;SDS011;47868;51.326;6.550;2024-03-22T05:56:46;26.77;;;18.17;;
61915;SDS011;47868;51.326;6.550;2024-03-22T05:59:12;27.52;;;19.83;;
61915;SDS011;47868;51.326;6.550;2024-03-22T06:01:38;24.20;;;18.20;;
61915;SDS011;47868;51.326;6.550;2024-03-22T06:04:07;28.15;;;19.75;;
61915;SDS011;47868;51.326;6.550;2024-03-22T06:06:36;23.65;;;19.08;;
61915;SDS011;47868;51.326;6.550;2024-03-22T06:09:03;26.95;;;19.25;;
61915;SDS011;47868;51.326;6.550;2024-03-22T06:11:30;29.73;;;20.17;;
61915;SDS011;47868;51.326;6.550;2024-03-22T06:13:56;24.23;;;18.05;;
61915;SDS011;47868;51.326;6.550;2024-03-22T06:16:22;28.70;;;18.90;;
61915;SDS011;47868;51.326;6.550;2024-03-22T06:18:48;24.95;;;17.92;;
61915;SDS011;47868;51.326;6.550;2024-03-22T06:21:14;21.83;;;18.40;;
61915;SDS011;47868;51.326;6.550;2024-03-22T06:23:40;26.00;;;18.60;;
61915;SDS011;47868;51.326;6.550;2024-03-22T06:26:07;28.85;;;19.85;;
61915;SDS011;47868;51.326;6.550;2024-03-22T06:28:33;25.30;;;18.63;;
61915;SDS011;47868;51.326;6.550;2024-03-22T06:30:59;31.98;;;19.05;;
61915;SDS011;47868;51.326;6.550;2024-03-22T06:33:25;28.50;;;18.90;;
61915;SDS011;47868;51.326;6.550;2024-03-22T06:35:51;29.67;;;17.98;;
61915;SDS011;47868;51.326;6.550;2024-03-22T06:38:16;25.13;;;18.75;;
61915;SDS011;47868;51.326;6.550;2024-03-22T06:40:43;27.20;;;17.98;;
61915;SDS011;47868;51.326;6.550;2024-03-22T06:43:09;24.45;;;18.42;;
61915;SDS011;47868;51.326;6.550;2024-03-22T06:45:35;24.70;;;18.67;;
61915;SDS011;47868;51.326;6.550;2024-03-22T06:48:01;26.77;;;18.90;;
61915;SDS011;47868;51.326;6.550;2024-03-22T06:50:27;24.85;;;18.95;;
61915;SDS011;47868;51.326;6.550;2024-03-22T06:52:53;23.88;;;17.38;;
61915;SDS011;47868;51.326;6.550;2024-03-22T06:55:20;27.90;;;18.52;;
61915;SDS011;47868;51.326;6.550;2024-03-22T06:57:47;28.95;;;18.70;;
61915;SDS011;47868;51.326;6.550;2024-03-22T07:00:13;28.75;;;19.17;;
61915;SDS011;47868;51.326;6.550;2024-03-22T07:02:39;26.77;;;18.77;;
61915;SDS011;47868;51.326;6.550;2024-03-22T07:05:06;27.33;;;17.23;;
61915;SDS011;47868;51.326;6.550;2024-03-22T07:07:32;26.20;;;17.83;;
61915;SDS011;47868;51.326;6.550;2024-03-22T07:09:58;24.02;;;18.30;;
61915;SDS011;47868;51.326;6.550;2024-03-22T07:12:24;23.42;;;17.10;;
61915;SDS011;47868;51.326;6.550;2024-03-22T07:14:50;23.67;;;17.08;;
61915;SDS011;47868;51.326;6.550;2024-03-22T07:17:16;21.40;;;16.90;;
61915;SDS011;47868;51.326;6.550;2024-03-22T07:19:42;23.48;;;17.02;;
61915;SDS011;47868;51.326;6.550;2024-03-22T07:22:08;20.98;;;16.75;;
61915;SDS011;47868;51.326;6.550;2024-03-22T07:24:34;23.15;;;16.98;;
61915;SDS011;47868;51.326;6.550;2024-03-22T07:27:00;22.13;;;17.45;;
61915;SDS011;47868;51.326;6.550;2024-03-22T07:29:26;22.92;;;17.33;;
61915;SDS011;47868;51.326;6.550;2024-03-22T07:31:52;24.58;;;17.58;;
61915;SDS011;47868;51.326;6.550;2024-03-22T07:34:18;24.95;;;17.80;;
61915;SDS011;47868;51.326;6.550;2024-03-22T07:36:44;22.77;;;17.25;;
61915;SDS011;47868;51.326;6.550;2024-03-22T07:39:10;23.60;;;18.50;;
61915;SDS011;47868;51.326;6.550;2024-03-22T07:41:36;25.85;;;17.73;;
61915;SDS011;47868;51.326;6.550;2024-03-22T07:44:02;22.88;;;17.33;;
61915;SDS011;47868;51.326;6.550;2024-03-22T07:46:30;23.75;;;17.35;;
61915;SDS011;47868;51.326;6.550;2024-03-22T07:48:56;22.17;;;17.17;;
61915;SDS011;47868;51.326;6.550;2024-03-22T07:51:22;23.70;;;17.20;;
61915;SDS011;47868;51.326;6.550;2024-03-22T07:53:49;28.23;;;17.73;;
61915;SDS011;47868;51.326;6.550;2024-03-22T07:56:16;29.40;;;17.23;;
61915;SDS011;47868;51.326;6.550;2024-03-22T07:58:44;21.98;;;17.30;;
61915;SDS011;47868;51.326;6.550;2024-03-22T08:01:10;21.15;;;16.50;;
61915;SDS011;47868;51.326;6.550;2024-03-22T08:03:38;23.90;;;17.13;;
61915;SDS011;47868;51.326;6.550;2024-03-22T08:06:04;22.88;;;16.60;;
61915;SDS011;47868;51.326;6.550;2024-03-22T08:08:30;24.38;;;16.85;;
61915;SDS011;47868;51.326;6.550;2024-03-22T08:10:56;20.70;;;17.17;;
61915;SDS011;47868;51.326;6.550;2024-03-22T08:13:23;20.92;;;16.40;;
61915;SDS011;47868;51.326;6.550;2024-03-22T08:15:49;21.10;;;16.08;;
61915;SDS011;47868;51.326;6.550;2024-03-22T08:18:15;20.00;;;16.02;;
61915;SDS011;47868;51.326;6.550;2024-03-22T08:20:41;22.77;;;15.57;;
61915;SDS011;47868;51.326;6.550;2024-03-22T08:23:08;24.75;;;15.98;;
61915;SDS011;47868;51.326;6.550;2024-03-22T08:25:34;20.73;;;14.80;;
61915;SDS011;47868;51.326;6.550;2024-03-22T08:28:00;22.67;;;16.17;;
61915;SDS011;47868;51.326;6.550;2024-03-22T08:30:26;24.00;;;15.30;;
61915;SDS011;47868;51.326;6.550;2024-03-22T08:32:52;21.23;;;15.45;;
61915;SDS011;47868;51.326;6.550;2024-03-22T08:35:18;19.58;;;15.38;;
61915;SDS011;47868;51.326;6.550;2024-03-22T08:37:44;18.27;;;14.50;;
61915;SDS011;47868;51.326;6.550;2024-03-22T08:40:10;23.92;;;14.88;;
61915;SDS011;47868;51.326;6.550;2024-03-22T08:42:37;18.38;;;14.27;;
61915;SDS011;47868;51.326;6.550;2024-03-22T08:45:04;23.05;;;14.40;;
61915;SDS011;47868;51.326;6.550;2024-03-22T08:47:30;18.10;;;12.95;;
61915;SDS011;47868;51.326;6.550;2024-03-22T08:49:58;17.73;;;13.23;;
61915;SDS011;47868;51.326;6.550;2024-03-22T08:52:24;17.67;;;13.00;;
61915;SDS011;47868;51.326;6.550;2024-03-22T08:54:50;19.15;;;12.98;;
61915;SDS011;47868;51.326;6.550;2024-03-22T08:57:16;15.70;;;12.63;;
61915;SDS011;47868;51.326;6.550;2024-03-22T08:59:42;17.58;;;13.05;;
61915;SDS011;47868;51.326;6.550;2024-03-22T09:02:08;21.20;;;13.05;;
61915;SDS011;47868;51.326;6.550;2024-03-22T09:04:34;20.05;;;13.18;;
61915;SDS011;47868;51.326;6.550;2024-03-22T09:07:00;18.85;;;13.10;;
61915;SDS011;47868;51.326;6.550;2024-03-22T09:09:26;16.55;;;12.57;;
61915;SDS011;47868;51.326;6.550;2024-03-22T09:11:52;15.13;;;11.90;;
61915;SDS011;47868;51.326;6.550;2024-03-22T09:14:18;17.70;;;11.95;;
61915;SDS011;47868;51.326;6.550;2024-03-22T09:16:44;16.98;;;12.40;;
61915;SDS011;47868;51.326;6.550;2024-03-22T09:19:10;13.60;;;11.05;;
61915;SDS011;47868;51.326;6.550;2024-03-22T09:21:36;16.65;;;10.95;;
61915;SDS011;47868;51.326;6.550;2024-03-22T09:24:02;16.73;;;10.68;;
61915;SDS011;47868;51.326;6.550;2024-03-22T09:26:28;13.77;;;10.88;;
61915;SDS011;47868;51.326;6.550;2024-03-22T09:28:55;16.27;;;10.18;;
61915;SDS011;47868;51.326;6.550;2024-03-22T09:31:21;13.60;;;11.55;;
61915;SDS011;47868;51.326;6.550;2024-03-22T09:33:47;15.85;;;10.95;;
61915;SDS011;47868;51.326;6.550;2024-03-22T09:36:13;11.98;;;10.70;;
61915;SDS011;47868;51.326;6.550;2024-03-22T09:38:39;13.57;;;10.10;;
61915;SDS011;47868;51.326;6.550;2024-03-22T09:41:05;14.50;;;11.23;;
61915;SDS011;47868;51.326;6.550;2024-03-22T09:43:30;13.13;;;9.80;;
61915;SDS011;47868;51.326;6.550;2024-03-22T09:45:57;15.95;;;10.68;;
61915;SDS011;47868;51.326;6.550;2024-03-22T09:48:23;13.07;;;9.63;;
61915;SDS011;47868;51.326;6.550;2024-03-22T09:50:49;17.30;;;9.88;;
61915;SDS011;47868;51.326;6.550;2024-03-22T09:53:19;16.08;;;10.55;;
61915;SDS011;47868;51.326;6.550;2024-03-22T09:55:46;11.38;;;10.18;;
61915;SDS011;47868;51.326;6.550;2024-03-22T09:58:13;14.70;;;10.55;;
61915;SDS011;47868;51.326;6.550;2024-03-22T10:00:39;13.43;;;9.73;;
61915;SDS011;47868;51.326;6.550;2024-03-22T10:03:05;15.48;;;10.00;;
61915;SDS011;47868;51.326;6.550;2024-03-22T10:05:31;13.13;;;9.75;;
61915;SDS011;47868;51.326;6.550;2024-03-22T10:07:57;15.80;;;10.48;;
61915;SDS011;47868;51.326;6.550;2024-03-22T10:10:23;15.25;;;10.57;;
61915;SDS011;47868;51.326;6.550;2024-03-22T10:12:49;12.18;;;9.60;;
61915;SDS011;47868;51.326;6.550;2024-03-22T10:15:18;11.90;;;9.38;;
61915;SDS011;47868;51.326;6.550;2024-03-22T10:17:44;20.45;;;10.60;;
61915;SDS011;47868;51.326;6.550;2024-03-22T10:20:13;15.80;;;9.77;;
61915;SDS011;47868;51.326;6.550;2024-03-22T10:22:43;12.98;;;10.13;;
61915;SDS011;47868;51.326;6.550;2024-03-22T10:25:10;13.50;;;10.45;;
61915;SDS011;47868;51.326;6.550;2024-03-22T10:27:39;12.27;;;9.02;;
61915;SDS011;47868;51.326;6.550;2024-03-22T10:30:07;13.70;;;9.55;;
61915;SDS011;47868;51.326;6.550;2024-03-22T10:32:34;13.82;;;9.60;;
61915;SDS011;47868;51.326;6.550;2024-03-22T10:35:01;12.38;;;9.95;;
61915;SDS011;47868;51.326;6.550;2024-03-22T10:37:30;16.65;;;10.13;;
61915;SDS011;47868;51.326;6.550;2024-03-22T10:39:57;11.27;;;9.10;;
61915;SDS011;47868;51.326;6.550;2024-03-22T10:42:24;12.52;;;8.82;;
61915;SDS011;47868;51.326;6.550;2024-03-22T10:44:50;12.90;;;9.63;;
61915;SDS011;47868;51.326;6.550;2024-03-22T10:47:16;11.75;;;8.90;;
61915;SDS011;47868;51.326;6.550;2024-03-22T10:49:44;13.77;;;10.10;;
61915;SDS011;47868;51.326;6.550;2024-03-22T10:52:11;13.50;;;9.95;;
61915;SDS011;47868;51.326;6.550;2024-03-22T10:54:39;13.15;;;10.18;;
61915;SDS011;47868;51.326;6.550;2024-03-22T10:57:06;13.02;;;9.63;;
61915;SDS011;47868;51.326;6.550;2024-03-22T10:59:33;15.32;;;9.90;;
61915;SDS011;47868;51.326;6.550;2024-03-22T11:02:02;14.43;;;9.73;;
61915;SDS011;47868;51.326;6.550;2024-03-22T11:04:29;15.07;;;9.32;;
61915;SDS011;47868;51.326;6.550;2024-03-22T11:06:59;11.77;;;8.98;;
61915;SDS011;47868;51.326;6.550;2024-03-22T11:09:25;11.82;;;8.65;;
61915;SDS011;47868;51.326;6.550;2024-03-22T11:11:52;14.00;;;9.20;;
61915;SDS011;47868;51.326;6.550;2024-03-22T11:14:18;11.43;;;8.93;;
61915;SDS011;47868;51.326;6.550;2024-03-22T11:16:49;12.88;;;9.43;;
61915;SDS011;47868;51.326;6.550;2024-03-22T11:19:15;13.18;;;9.18;;
61915;SDS011;47868;51.326;6.550;2024-03-22T11:21:42;11.25;;;8.85;;
61915;SDS011;47868;51.326;6.550;2024-03-22T11:24:08;13.68;;;8.85;;
61915;SDS011;47868;51.326;6.550;2024-03-22T11:26:35;14.93;;;9.40;;
61915;SDS011;47868;51.326;6.550;2024-03-22T11:29:01;14.73;;;9.13;;
61915;SDS011;47868;51.326;6.550;2024-03-22T11:31:27;11.85;;;8.73;;
61915;SDS011;47868;51.326;6.550;2024-03-22T11:33:53;12.18;;;8.68;;
61915;SDS011;47868;51.326;6.550;2024-03-22T11:36:19;11.45;;;8.85;;
61915;SDS011;47868;51.326;6.550;2024-03-22T11:38:46;10.32;;;9.10;;
61915;SDS011;47868;51.326;6.550;2024-03-22T11:41:19;10.77;;;8.50;;
61915;SDS011;47868;51.326;6.550;2024-03-22T11:43:46;11.25;;;9.35;;
61915;SDS011;47868;51.326;6.550;2024-03-22T11:46:14;11.00;;;9.25;;
61915;SDS011;47868;51.326;6.550;2024-03-22T11:48:40;15.35;;;10.35;;
61915;SDS011;47868;51.326;6.550;2024-03-22T11:51:07;17.10;;;10.15;;
61915;SDS011;47868;51.326;6.550;2024-03-22T11:53:33;18.02;;;11.70;;
61915;SDS011;47868;51.326;6.550;2024-03-22T11:56:00;19.48;;;10.77;;
61915;SDS011;47868;51.326;6.550;2024-03-22T11:58:28;13.85;;;11.40;;
61915;SDS011;47868;51.326;6.550;2024-03-22T12:00:55;14.98;;;11.57;;
61915;SDS011;47868;51.326;6.550;2024-03-22T12:03:21;14.85;;;11.15;;
61915;SDS011;47868;51.326;6.550;2024-03-22T12:05:48;15.10;;;11.20;;
61915;SDS011;47868;51.326;6.550;2024-03-22T12:08:16;13.52;;;10.93;;
61915;SDS011;47868;51.326;6.550;2024-03-22T12:10:42;15.75;;;11.77;;
61915;SDS011;47868;51.326;6.550;2024-03-22T12:13:08;14.07;;;10.95;;
61915;SDS011;47868;51.326;6.550;2024-03-22T12:15:34;15.18;;;10.70;;
61915;SDS011;47868;51.326;6.550;2024-03-22T12:18:00;17.02;;;11.95;;
61915;SDS011;47868;51.326;6.550;2024-03-22T12:20:26;17.42;;;11.48;;
61915;SDS011;47868;51.326;6.550;2024-03-22T12:22:52;14.98;;;11.18;;
61915;SDS011;47868;51.326;6.550;2024-03-22T12:25:18;14.57;;;11.85;;
61915;SDS011;47868;51.326;6.550;2024-03-22T12:27:46;14.30;;;12.07;;
61915;SDS011;47868;51.326;6.550;2024-03-22T12:30:12;15.32;;;11.90;;
61915;SDS011;47868;51.326;6.550;2024-03-22T12:32:38;15.90;;;12.18;;
61915;SDS011;47868;51.326;6.550;2024-03-22T12:35:04;18.17;;;12.38;;
61915;SDS011;47868;51.326;6.550;2024-03-22T12:37:30;15.80;;;12.40;;
61915;SDS011;47868;51.326;6.550;2024-03-22T12:39:56;16.08;;;12.35;;
61915;SDS011;47868;51.326;6.550;2024-03-22T12:42:23;16.17;;;12.60;;
61915;SDS011;47868;51.326;6.550;2024-03-22T12:44:49;17.95;;;13.20;;
61915;SDS011;47868;51.326;6.550;2024-03-22T12:47:15;14.95;;;12.07;;
61915;SDS011;47868;51.326;6.550;2024-03-22T12:49:41;21.20;;;12.57;;
61915;SDS011;47868;51.326;6.550;2024-03-22T12:52:07;23.45;;;13.20;;
61915;SDS011;47868;51.326;6.550;2024-03-22T12:54:33;15.15;;;12.30;;
61915;SDS011;47868;51.326;6.550;2024-03-22T12:56:59;16.65;;;12.93;;
61915;SDS011;47868;51.326;6.550;2024-03-22T12:59:25;14.38;;;11.73;;
61915;SDS011;47868;51.326;6.550;2024-03-22T13:01:51;14.65;;;12.40;;
61915;SDS011;47868;51.326;6.550;2024-03-22T13:04:18;17.05;;;13.25;;
61915;SDS011;47868;51.326;6.550;2024-03-22T13:06:44;15.73;;;13.02;;
61915;SDS011;47868;51.326;6.550;2024-03-22T13:09:10;16.27;;;12.23;;
61915;SDS011;47868;51.326;6.550;2024-03-22T13:11:37;14.98;;;10.52;;
61915;SDS011;47868;51.326;6.550;2024-03-22T13:14:05;14.32;;;11.20;;
61915;SDS011;47868;51.326;6.550;2024-03-22T13:16:31;15.82;;;11.27;;
61915;SDS011;47868;51.326;6.550;2024-03-22T13:18:58;12.73;;;11.27;;
61915;SDS011;47868;51.326;6.550;2024-03-22T13:21:24;13.95;;;11.80;;
61915;SDS011;47868;51.326;6.550;2024-03-22T13:23:52;13.43;;;10.63;;
61915;SDS011;47868;51.326;6.550;2024-03-22T13:26:18;15.10;;;12.50;;
61915;SDS011;47868;51.326;6.550;2024-03-22T13:28:44;17.67;;;12.35;;
61915;SDS011;47868;51.326;6.550;2024-03-22T13:31:11;13.55;;;11.77;;
61915;SDS011;47868;51.326;6.550;2024-03-22T13:33:40;16.30;;;12.77;;
61915;SDS011;47868;51.326;6.550;2024-03-22T13:36:06;30.25;;;16.48;;
61915;SDS011;47868;51.326;6.550;2024-03-22T13:38:32;38.67;;;20.30;;
61915;SDS011;47868;51.326;6.550;2024-03-22T13:40:58;27.92;;;16.05;;
61915;SDS011;47868;51.326;6.550;2024-03-22T13:43:28;14.75;;;13.25;;
61915;SDS011;47868;51.326;6.550;2024-03-22T13:45:54;16.67;;;14.48;;
61915;SDS011;47868;51.326;6.550;2024-03-22T13:48:23;16.63;;;13.95;;
61915;SDS011;47868;51.326;6.550;2024-03-22T13:50:53;16.88;;;14.82;;
61915;SDS011;47868;51.326;6.550;2024-03-22T13:53:19;23.25;;;15.32;;
61915;SDS011;47868;51.326;6.550;2024-03-22T13:55:48;16.45;;;14.35;;
61915;SDS011;47868;51.326;6.550;2024-03-22T13:58:14;17.40;;;14.32;;
61915;SDS011;47868;51.326;6.550;2024-03-22T14:00:41;16.45;;;14.18;;
61915;SDS011;47868;51.326;6.550;2024-03-22T14:03:07;16.80;;;14.80;;
61915;SDS011;47868;51.326;6.550;2024-03-22T14:05:33;22.55;;;15.70;;
61915;SDS011;47868;51.326;6.550;2024-03-22T14:07:59;17.83;;;15.30;;
61915;SDS011;47868;51.326;6.550;2024-03-22T14:10:25;18.05;;;15.32;;
61915;SDS011;47868;51.326;6.550;2024-03-22T14:12:56;17.80;;;14.98;;
61915;SDS011;47868;51.326;6.550;2024-03-22T14:15:22;18.83;;;15.02;;
61915;SDS011;47868;51.326;6.550;2024-03-22T14:17:56;18.13;;;15.23;;